Huvudsida
METAR-TAF:

METAR-TAF

Flygplatser :

Batajnica, Serbien

latitud: 44-56-07N, longitud: 020-15-27E, höjd: 86 m

Aktuellt väderrapport

Denna rapport gjordes för 23 minuter sedan, klockan 14:30 UTC
Vind 2 kt varierande vindriktning
Temperatur 31°C
Fuktighet 49%
Tryck 1022 hPa
Sikt 10 km eller mer
Inga moln under 1 500 m eller inga cumulonimbus

METAR: LYBT 261430Z VRB02KT CAVOK 31/19 Q1022 NOSIG

Tid: 16:53 (14:53 UTC)

Väderprognos

Denna rapport gjordes för 3 timmar och 53 minuter sedan, klockan 11:00 UTC
Prognos gäller från 26 kl. 12 UTC till 27 kl. 12 UTC
Vind 8 kt från ost/nordost
Sikt 10 km eller mer
Inga moln under 1 500 m eller inga cumulonimbus

TAF: LYBT 261100Z 2612/2712 06008KT CAVOK TX33/2614Z TN22/2703Z

Aktuella väderrapporter och prognoser från 4000 flygplatser (METAR- och TAF-rapporter).

De tillgängliga stationerna syns som gula och röda prickar på kartan.

För musen över prickarna för att se namnen på stationerna.

Klicka sedan för att få väderrapporter och prognoser.

För att ändra kartan: Klicka på de gröna knapparna med ett svart kors på för att zooma in; den gröna knappen med ett streck på för att zooma ut; eller på de gröna pilarna för angränsande kartor.


METAR-TAF: